< Typhoon 200110 2001 Season Typhoon 200112 >
Typhoon 200111 (PABUK)
General InformationTrack Information on Google MapsDetailed Wind InformationList of All Images || NewsDisaster Info.ResourceGoogle EarthGE AnimationAtom FeedGeoJSON
Detalied Best Track (Time Zone = UTC)
Year Month Day Hour Lat. Long. Pressure (hPa) Wind (kt) Class Image Chart
2001 8 13 12 16.4 147.4 1002 0 2 Image Chart
2001 8 13 18 16.8 146.5 1000 0 2 Image Chart
2001 8 14 00 18.3 146.3 1000 0 2 Image Chart
2001 8 14 06 18.9 146.1 998 0 2 Image Chart
2001 8 14 12 19.2 145.8 996 35 3 Image Chart
2001 8 14 18 19.2 144.5 992 40 3 Image Chart
2001 8 15 00 19.6 143.2 990 45 3 Image Chart
2001 8 15 06 19.8 142.4 985 50 4 Image Chart
2001 8 15 12 20.0 141.2 985 50 4 Image Chart
2001 8 15 18 20.4 140.7 980 55 4 Image Chart
2001 8 16 00 20.8 140.2 975 60 4 Image Chart
2001 8 16 06 21.1 139.5 975 60 4 Image Chart
2001 8 16 12 21.3 139.0 970 60 4 Image Chart
2001 8 16 18 21.3 138.6 965 65 5 Image Chart
2001 8 17 00 21.6 138.2 960 70 5 Image Chart
2001 8 17 06 21.8 137.6 960 70 5 Image Chart
2001 8 17 12 21.9 137.3 960 70 5 Image Chart
2001 8 17 18 22.3 137.0 960 70 5 Image Chart
2001 8 18 00 22.8 136.8 960 70 5 Image Chart
2001 8 18 06 23.5 136.4 960 70 5 Image Chart
2001 8 18 12 24.2 135.8 960 70 5 Image Chart
2001 8 18 18 24.7 135.1 960 70 5 Image Chart
2001 8 19 00 25.3 134.5 960 70 5 Image Chart
2001 8 19 03 25.9 134.1 960 70 5 Image Chart
2001 8 19 06 26.3 133.7 960 70 5 Image Chart
2001 8 19 09 26.6 133.3 960 70 5 Image Chart
2001 8 19 12 27.0 133.3 960 70 5 Image Chart
2001 8 19 15 27.3 133.1 960 70 5 Image Chart
2001 8 19 18 27.7 133.0 960 70 5 Image Chart
2001 8 19 21 28.1 132.9 960 70 5 Image Chart
2001 8 20 00 28.5 132.9 960 70 5 Image Chart
2001 8 20 03 29.0 132.9 960 70 5 Image Chart
2001 8 20 06 29.5 133.1 960 70 5 Image Chart
2001 8 20 09 29.9 133.3 960 70 5 Image Chart
2001 8 20 12 30.1 133.7 965 65 5 Image Chart
2001 8 20 15 30.5 133.9 965 65 5 Image Chart
2001 8 20 18 30.7 134.3 965 65 5 Image Chart
2001 8 20 21 31.3 134.6 965 65 5 Image Chart
2001 8 21 00 32.0 134.6 965 65 5 Image Chart
2001 8 21 03 32.4 134.7 965 60 4 Image Chart
2001 8 21 06 33.0 134.9 970 55 4 Image Chart
2001 8 21 09 33.4 135.4 970 55 4 Image Chart
2001 8 21 10 33.5 135.5 970 55 4 Image Chart
2001 8 21 12 33.7 135.7 970 55 4 Image Chart
2001 8 21 15 33.8 136.0 975 50 4 Image Chart
2001 8 21 18 34.2 136.5 975 50 4 Image Chart
2001 8 21 19 34.3 136.7 975 50 4 Image Chart
2001 8 21 21 34.5 137.0 975 50 4 Image Chart
2001 8 22 00 34.5 137.9 980 45 3 Image Chart
2001 8 22 03 34.8 138.8 982 45 3 Image Chart
2001 8 22 05 35.3 139.5 982 45 3 Image Chart
2001 8 22 06 35.5 139.8 982 45 3 Image Chart
2001 8 22 09 36.5 140.6 985 45 3 Image Chart
2001 8 22 12 37.4 141.1 986 40 3 Image Chart
2001 8 22 15 38.5 141.7 988 40 3 Image Chart
2001 8 22 18 39.9 142.2 988 0 2 Image Chart
Japan Meteorological Agency Best Track Data | Correction Date : 2002-01-24
< Typhoon 200110 2001 Season Typhoon 200112 >

Help